sensor_id;sensor_type;location;lat;lon;timestamp;P1;durP1;ratioP1;P2;durP2;ratioP2
84357;SDS011;74548;47.712;9.272;2023-12-20T01:19:46;2.65;;;1.52;;
84357;SDS011;74548;47.712;9.272;2023-12-20T01:22:11;2.03;;;1.20;;
84357;SDS011;74548;47.712;9.272;2023-12-20T01:24:37;3.50;;;1.60;;
84357;SDS011;74548;47.712;9.272;2023-12-20T01:27:02;3.10;;;1.77;;
84357;SDS011;74548;47.712;9.272;2023-12-20T01:29:27;3.63;;;1.73;;
84357;SDS011;74548;47.712;9.272;2023-12-20T01:31:53;2.43;;;1.60;;
84357;SDS011;74548;47.712;9.272;2023-12-20T01:34:18;3.53;;;1.77;;
84357;SDS011;74548;47.712;9.272;2023-12-20T01:36:43;4.53;;;1.90;;
84357;SDS011;74548;47.712;9.272;2023-12-20T01:39:09;2.33;;;1.55;;
84357;SDS011;74548;47.712;9.272;2023-12-20T01:42:59;3.83;;;1.67;;
84357;SDS011;74548;47.712;9.272;2023-12-20T01:45:36;3.08;;;1.70;;
84357;SDS011;74548;47.712;9.272;2023-12-20T01:48:01;3.08;;;1.80;;
84357;SDS011;74548;47.712;9.272;2023-12-20T01:50:28;2.80;;;1.60;;
84357;SDS011;74548;47.712;9.272;2023-12-20T01:52:56;3.22;;;1.83;;
84357;SDS011;74548;47.712;9.272;2023-12-20T01:55:25;2.70;;;1.73;;
84357;SDS011;74548;47.712;9.272;2023-12-20T01:57:52;3.45;;;1.90;;
84357;SDS011;74548;47.712;9.272;2023-12-20T02:00:18;4.35;;;2.00;;
84357;SDS011;74548;47.712;9.272;2023-12-20T02:02:48;3.05;;;1.77;;
84357;SDS011;74548;47.712;9.272;2023-12-20T02:05:15;3.05;;;1.65;;
84357;SDS011;74548;47.712;9.272;2023-12-20T02:07:41;3.75;;;1.90;;
84357;SDS011;74548;47.712;9.272;2023-12-20T02:10:07;3.28;;;1.95;;
84357;SDS011;74548;47.712;9.272;2023-12-20T02:12:33;2.97;;;1.65;;
84357;SDS011;74548;47.712;9.272;2023-12-20T02:17:22;4.40;;;1.90;;
84357;SDS011;74548;47.712;9.272;2023-12-20T02:19:49;2.50;;;1.63;;
84357;SDS011;74548;47.712;9.272;2023-12-20T02:22:14;2.58;;;1.63;;
84357;SDS011;74548;47.712;9.272;2023-12-20T02:24:40;3.20;;;1.52;;
84357;SDS011;74548;47.712;9.272;2023-12-20T02:27:05;3.70;;;1.70;;
84357;SDS011;74548;47.712;9.272;2023-12-20T02:29:32;3.35;;;1.88;;
84357;SDS011;74548;47.712;9.272;2023-12-20T02:31:58;2.88;;;1.70;;
84357;SDS011;74548;47.712;9.272;2023-12-20T02:34:24;3.05;;;1.95;;
84357;SDS011;74548;47.712;9.272;2023-12-20T02:36:49;3.83;;;2.00;;
84357;SDS011;74548;47.712;9.272;2023-12-20T02:39:14;3.87;;;1.90;;
84357;SDS011;74548;47.712;9.272;2023-12-20T02:41:40;3.60;;;2.00;;
84357;SDS011;74548;47.712;9.272;2023-12-20T02:44:05;4.10;;;2.20;;
84357;SDS011;74548;47.712;9.272;2023-12-20T02:46:30;2.90;;;1.93;;
84357;SDS011;74548;47.712;9.272;2023-12-20T02:48:55;5.15;;;1.90;;
84357;SDS011;74548;47.712;9.272;2023-12-20T02:51:21;3.30;;;1.80;;
84357;SDS011;74548;47.712;9.272;2023-12-20T02:53:46;2.87;;;1.90;;
84357;SDS011;74548;47.712;9.272;2023-12-20T02:56:11;4.90;;;2.60;;
84357;SDS011;74548;47.712;9.272;2023-12-20T02:58:37;4.22;;;3.20;;
84357;SDS011;74548;47.712;9.272;2023-12-20T03:01:02;4.20;;;2.33;;
84357;SDS011;74548;47.712;9.272;2023-12-20T03:03:28;4.68;;;2.45;;
84357;SDS011;74548;47.712;9.272;2023-12-20T03:05:53;3.07;;;2.00;;
84357;SDS011;74548;47.712;9.272;2023-12-20T03:08:18;4.57;;;2.70;;
84357;SDS011;74548;47.712;9.272;2023-12-20T03:10:44;4.40;;;2.30;;
84357;SDS011;74548;47.712;9.272;2023-12-20T03:13:09;2.83;;;1.75;;
84357;SDS011;74548;47.712;9.272;2023-12-20T03:15:34;4.47;;;2.28;;
84357;SDS011;74548;47.712;9.272;2023-12-20T03:18:00;3.58;;;2.05;;
84357;SDS011;74548;47.712;9.272;2023-12-20T03:20:25;4.95;;;2.35;;
84357;SDS011;74548;47.712;9.272;2023-12-20T03:22:53;5.32;;;2.72;;
84357;SDS011;74548;47.712;9.272;2023-12-20T03:25:19;2.97;;;2.00;;
84357;SDS011;74548;47.712;9.272;2023-12-20T03:27:44;3.93;;;2.67;;
84357;SDS011;74548;47.712;9.272;2023-12-20T03:30:09;3.93;;;2.30;;
84357;SDS011;74548;47.712;9.272;2023-12-20T03:32:36;4.57;;;2.63;;
84357;SDS011;74548;47.712;9.272;2023-12-20T03:35:02;4.05;;;2.00;;
84357;SDS011;74548;47.712;9.272;2023-12-20T03:37:28;4.82;;;2.30;;
84357;SDS011;74548;47.712;9.272;2023-12-20T03:39:53;4.23;;;2.43;;
84357;SDS011;74548;47.712;9.272;2023-12-20T03:42:18;3.87;;;2.13;;
84357;SDS011;74548;47.712;9.272;2023-12-20T03:49:28;3.92;;;2.72;;
84357;SDS011;74548;47.712;9.272;2023-12-20T03:51:54;5.15;;;3.20;;
84357;SDS011;74548;47.712;9.272;2023-12-20T03:54:19;6.07;;;2.83;;
84357;SDS011;74548;47.712;9.272;2023-12-20T03:56:44;5.67;;;2.67;;
84357;SDS011;74548;47.712;9.272;2023-12-20T03:59:10;4.10;;;2.37;;
84357;SDS011;74548;47.712;9.272;2023-12-20T04:01:35;3.65;;;2.13;;
84357;SDS011;74548;47.712;9.272;2023-12-20T04:04:00;5.47;;;3.00;;
84357;SDS011;74548;47.712;9.272;2023-12-20T04:06:26;6.53;;;2.90;;
84357;SDS011;74548;47.712;9.272;2023-12-20T04:08:51;5.37;;;2.43;;
84357;SDS011;74548;47.712;9.272;2023-12-20T04:11:17;4.22;;;2.20;;
84357;SDS011;74548;47.712;9.272;2023-12-20T04:13:42;5.15;;;2.50;;
84357;SDS011;74548;47.712;9.272;2023-12-20T04:18:37;3.88;;;2.53;;
84357;SDS011;74548;47.712;9.272;2023-12-20T04:21:03;5.30;;;3.00;;
84357;SDS011;74548;47.712;9.272;2023-12-20T04:23:28;6.13;;;3.17;;
84357;SDS011;74548;47.712;9.272;2023-12-20T04:25:54;4.43;;;2.47;;
84357;SDS011;74548;47.712;9.272;2023-12-20T04:28:19;5.13;;;2.97;;
84357;SDS011;74548;47.712;9.272;2023-12-20T04:30:45;5.97;;;2.97;;
84357;SDS011;74548;47.712;9.272;2023-12-20T04:33:10;4.65;;;2.75;;
84357;SDS011;74548;47.712;9.272;2023-12-20T04:35:35;4.13;;;2.50;;
84357;SDS011;74548;47.712;9.272;2023-12-20T04:38:00;5.17;;;2.73;;
84357;SDS011;74548;47.712;9.272;2023-12-20T04:40:26;4.83;;;2.57;;
84357;SDS011;74548;47.712;9.272;2023-12-20T04:42:51;4.80;;;2.90;;
84357;SDS011;74548;47.712;9.272;2023-12-20T04:45:16;8.93;;;3.50;;
84357;SDS011;74548;47.712;9.272;2023-12-20T04:47:43;7.00;;;2.78;;
84357;SDS011;74548;47.712;9.272;2023-12-20T04:50:09;4.38;;;2.50;;
84357;SDS011;74548;47.712;9.272;2023-12-20T04:52:35;9.55;;;3.22;;
84357;SDS011;74548;47.712;9.272;2023-12-20T04:55:00;5.50;;;2.53;;
84357;SDS011;74548;47.712;9.272;2023-12-20T04:57:26;6.30;;;3.00;;
84357;SDS011;74548;47.712;9.272;2023-12-20T04:59:51;4.50;;;2.63;;
84357;SDS011;74548;47.712;9.272;2023-12-20T05:02:16;3.27;;;2.23;;
84357;SDS011;74548;47.712;9.272;2023-12-20T05:04:42;5.57;;;3.07;;
84357;SDS011;74548;47.712;9.272;2023-12-20T05:07:07;5.45;;;2.92;;
84357;SDS011;74548;47.712;9.272;2023-12-20T05:09:32;4.37;;;2.73;;
84357;SDS011;74548;47.712;9.272;2023-12-20T05:11:58;4.60;;;2.50;;
84357;SDS011;74548;47.712;9.272;2023-12-20T05:14:24;3.95;;;2.33;;
84357;SDS011;74548;47.712;9.272;2023-12-20T05:16:50;4.30;;;2.25;;
84357;SDS011;74548;47.712;9.272;2023-12-20T05:21:32;5.85;;;3.00;;
84357;SDS011;74548;47.712;9.272;2023-12-20T05:23:58;4.32;;;2.40;;
84357;SDS011;74548;47.712;9.272;2023-12-20T05:26:23;4.53;;;2.50;;
84357;SDS011;74548;47.712;9.272;2023-12-20T05:28:49;4.47;;;2.03;;
84357;SDS011;74548;47.712;9.272;2023-12-20T05:31:14;6.03;;;2.40;;
84357;SDS011;74548;47.712;9.272;2023-12-20T05:33:39;4.47;;;2.58;;
84357;SDS011;74548;47.712;9.272;2023-12-20T05:36:05;4.40;;;2.63;;
84357;SDS011;74548;47.712;9.272;2023-12-20T05:38:30;3.97;;;2.58;;
84357;SDS011;74548;47.712;9.272;2023-12-20T05:40:56;4.97;;;2.20;;
84357;SDS011;74548;47.712;9.272;2023-12-20T05:43:21;4.38;;;2.60;;
84357;SDS011;74548;47.712;9.272;2023-12-20T05:45:46;3.67;;;2.30;;
84357;SDS011;74548;47.712;9.272;2023-12-20T05:50:36;4.30;;;2.85;;
84357;SDS011;74548;47.712;9.272;2023-12-20T05:53:02;5.28;;;2.67;;
84357;SDS011;74548;47.712;9.272;2023-12-20T05:55:27;2.80;;;2.13;;
84357;SDS011;74548;47.712;9.272;2023-12-20T05:57:52;4.65;;;2.63;;
84357;SDS011;74548;47.712;9.272;2023-12-20T06:00:18;4.27;;;2.70;;
84357;SDS011;74548;47.712;9.272;2023-12-20T06:02:43;3.65;;;2.25;;
84357;SDS011;74548;47.712;9.272;2023-12-20T06:05:09;5.07;;;2.50;;
84357;SDS011;74548;47.712;9.272;2023-12-20T06:07:34;3.65;;;2.38;;
84357;SDS011;74548;47.712;9.272;2023-12-20T06:10:00;5.95;;;2.95;;
84357;SDS011;74548;47.712;9.272;2023-12-20T06:12:25;4.97;;;2.55;;
84357;SDS011;74548;47.712;9.272;2023-12-20T06:14:52;5.03;;;2.90;;
84357;SDS011;74548;47.712;9.272;2023-12-20T06:17:17;4.03;;;2.58;;
84357;SDS011;74548;47.712;9.272;2023-12-20T06:19:43;4.10;;;2.43;;
84357;SDS011;74548;47.712;9.272;2023-12-20T06:22:10;3.55;;;2.50;;
84357;SDS011;74548;47.712;9.272;2023-12-20T06:24:35;5.43;;;2.88;;
84357;SDS011;74548;47.712;9.272;2023-12-20T06:29:31;4.00;;;2.20;;
84357;SDS011;74548;47.712;9.272;2023-12-20T06:31:56;6.78;;;3.17;;
84357;SDS011;74548;47.712;9.272;2023-12-20T06:34:21;4.60;;;2.70;;
84357;SDS011;74548;47.712;9.272;2023-12-20T06:36:47;4.03;;;2.30;;
84357;SDS011;74548;47.712;9.272;2023-12-20T06:39:12;3.43;;;2.13;;
84357;SDS011;74548;47.712;9.272;2023-12-20T06:41:39;3.65;;;2.42;;
84357;SDS011;74548;47.712;9.272;2023-12-20T06:44:04;2.72;;;2.08;;
84357;SDS011;74548;47.712;9.272;2023-12-20T06:48:49;7.15;;;3.22;;
84357;SDS011;74548;47.712;9.272;2023-12-20T06:51:15;5.60;;;3.60;;
84357;SDS011;74548;47.712;9.272;2023-12-20T06:53:41;5.80;;;3.38;;
84357;SDS011;74548;47.712;9.272;2023-12-20T06:56:06;4.82;;;3.10;;
84357;SDS011;74548;47.712;9.272;2023-12-20T06:58:32;5.53;;;3.58;;
84357;SDS011;74548;47.712;9.272;2023-12-20T07:00:58;4.68;;;2.80;;
84357;SDS011;74548;47.712;9.272;2023-12-20T07:05:41;6.07;;;3.30;;
84357;SDS011;74548;47.712;9.272;2023-12-20T07:08:06;5.75;;;3.15;;
84357;SDS011;74548;47.712;9.272;2023-12-20T07:10:32;4.35;;;2.60;;
84357;SDS011;74548;47.712;9.272;2023-12-20T07:12:57;5.47;;;3.10;;
84357;SDS011;74548;47.712;9.272;2023-12-20T07:15:23;5.50;;;3.25;;
84357;SDS011;74548;47.712;9.272;2023-12-20T07:17:48;5.07;;;2.92;;
84357;SDS011;74548;47.712;9.272;2023-12-20T07:20:14;5.00;;;2.92;;
84357;SDS011;74548;47.712;9.272;2023-12-20T07:22:39;5.43;;;3.53;;
84357;SDS011;74548;47.712;9.272;2023-12-20T07:25:05;5.10;;;3.35;;
84357;SDS011;74548;47.712;9.272;2023-12-20T07:27:31;4.60;;;2.47;;
84357;SDS011;74548;47.712;9.272;2023-12-20T07:29:56;6.18;;;3.10;;
84357;SDS011;74548;47.712;9.272;2023-12-20T07:35:10;5.72;;;3.17;;
84357;SDS011;74548;47.712;9.272;2023-12-20T07:37:36;6.05;;;3.33;;
84357;SDS011;74548;47.712;9.272;2023-12-20T07:40:01;5.97;;;3.13;;
84357;SDS011;74548;47.712;9.272;2023-12-20T07:42:28;4.65;;;2.88;;
84357;SDS011;74548;47.712;9.272;2023-12-20T07:44:53;4.60;;;2.75;;
84357;SDS011;74548;47.712;9.272;2023-12-20T07:47:20;4.50;;;2.65;;
84357;SDS011;74548;47.712;9.272;2023-12-20T07:49:47;5.85;;;3.05;;
84357;SDS011;74548;47.712;9.272;2023-12-20T07:52:13;4.60;;;3.00;;
84357;SDS011;74548;47.712;9.272;2023-12-20T07:54:39;4.53;;;2.58;;
84357;SDS011;74548;47.712;9.272;2023-12-20T07:57:05;5.45;;;3.33;;
84357;SDS011;74548;47.712;9.272;2023-12-20T07:59:30;3.90;;;2.53;;
84357;SDS011;74548;47.712;9.272;2023-12-20T08:01:55;5.53;;;2.70;;
84357;SDS011;74548;47.712;9.272;2023-12-20T08:04:21;4.50;;;2.75;;
84357;SDS011;74548;47.712;9.272;2023-12-20T08:06:47;5.05;;;2.83;;
84357;SDS011;74548;47.712;9.272;2023-12-20T08:11:35;6.45;;;2.67;;
84357;SDS011;74548;47.712;9.272;2023-12-20T08:14:00;3.60;;;2.37;;
84357;SDS011;74548;47.712;9.272;2023-12-20T08:16:25;4.25;;;2.33;;
84357;SDS011;74548;47.712;9.272;2023-12-20T08:18:51;4.93;;;2.50;;
84357;SDS011;74548;47.712;9.272;2023-12-20T08:23:38;4.10;;;2.55;;
84357;SDS011;74548;47.712;9.272;2023-12-20T08:26:07;5.27;;;2.47;;
84357;SDS011;74548;47.712;9.272;2023-12-20T08:28:33;5.63;;;3.60;;
84357;SDS011;74548;47.712;9.272;2023-12-20T08:30:58;5.95;;;3.60;;
84357;SDS011;74548;47.712;9.272;2023-12-20T08:33:24;6.78;;;3.92;;
84357;SDS011;74548;47.712;9.272;2023-12-20T08:35:49;6.53;;;3.70;;
84357;SDS011;74548;47.712;9.272;2023-12-20T08:38:14;5.97;;;4.17;;
84357;SDS011;74548;47.712;9.272;2023-12-20T08:40:40;7.38;;;3.70;;
84357;SDS011;74548;47.712;9.272;2023-12-20T08:43:05;6.53;;;3.80;;
84357;SDS011;74548;47.712;9.272;2023-12-20T08:45:30;6.03;;;3.73;;
84357;SDS011;74548;47.712;9.272;2023-12-20T08:47:56;6.07;;;3.93;;
84357;SDS011;74548;47.712;9.272;2023-12-20T08:50:21;7.10;;;4.43;;
84357;SDS011;74548;47.712;9.272;2023-12-20T08:52:46;6.15;;;3.75;;
84357;SDS011;74548;47.712;9.272;2023-12-20T08:55:12;6.47;;;4.05;;
84357;SDS011;74548;47.712;9.272;2023-12-20T08:59:53;7.13;;;4.57;;
84357;SDS011;74548;47.712;9.272;2023-12-20T09:02:18;5.40;;;3.87;;
84357;SDS011;74548;47.712;9.272;2023-12-20T09:04:44;5.25;;;3.90;;
84357;SDS011;74548;47.712;9.272;2023-12-20T09:07:22;6.85;;;3.88;;
84357;SDS011;74548;47.712;9.272;2023-12-20T09:09:48;6.63;;;4.03;;
84357;SDS011;74548;47.712;9.272;2023-12-20T09:12:13;8.43;;;3.75;;
84357;SDS011;74548;47.712;9.272;2023-12-20T09:14:39;6.10;;;3.60;;
84357;SDS011;74548;47.712;9.272;2023-12-20T09:17:04;6.25;;;3.88;;
84357;SDS011;74548;47.712;9.272;2023-12-20T09:19:29;6.77;;;3.70;;
84357;SDS011;74548;47.712;9.272;2023-12-20T09:21:55;7.03;;;4.10;;
84357;SDS011;74548;47.712;9.272;2023-12-20T09:24:20;6.13;;;3.80;;
84357;SDS011;74548;47.712;9.272;2023-12-20T09:26:45;5.60;;;3.80;;
84357;SDS011;74548;47.712;9.272;2023-12-20T09:29:11;6.00;;;3.70;;
84357;SDS011;74548;47.712;9.272;2023-12-20T09:31:40;6.70;;;3.30;;
84357;SDS011;74548;47.712;9.272;2023-12-20T09:34:05;4.75;;;3.35;;
84357;SDS011;74548;47.712;9.272;2023-12-20T09:36:31;5.13;;;3.15;;
84357;SDS011;74548;47.712;9.272;2023-12-20T09:39:00;5.68;;;3.33;;
84357;SDS011;74548;47.712;9.272;2023-12-20T09:41:26;5.78;;;3.22;;
84357;SDS011;74548;47.712;9.272;2023-12-20T09:43:56;4.70;;;2.80;;
84357;SDS011;74548;47.712;9.272;2023-12-20T09:46:27;5.30;;;2.95;;
84357;SDS011;74548;47.712;9.272;2023-12-20T09:48:58;4.20;;;2.63;;
84357;SDS011;74548;47.712;9.272;2023-12-20T09:51:25;4.78;;;2.92;;
84357;SDS011;74548;47.712;9.272;2023-12-20T09:53:51;4.22;;;2.85;;
84357;SDS011;74548;47.712;9.272;2023-12-20T09:56:19;4.70;;;3.05;;
84357;SDS011;74548;47.712;9.272;2023-12-20T09:58:45;4.38;;;2.67;;
84357;SDS011;74548;47.712;9.272;2023-12-20T10:01:11;3.58;;;2.60;;
84357;SDS011;74548;47.712;9.272;2023-12-20T10:03:37;5.25;;;2.65;;
84357;SDS011;74548;47.712;9.272;2023-12-20T10:06:05;4.30;;;2.58;;
84357;SDS011;74548;47.712;9.272;2023-12-20T10:08:31;4.13;;;2.53;;
84357;SDS011;74548;47.712;9.272;2023-12-20T10:10:57;4.95;;;2.17;;
84357;SDS011;74548;47.712;9.272;2023-12-20T10:13:27;3.70;;;2.22;;
84357;SDS011;74548;47.712;9.272;2023-12-20T10:15:52;2.85;;;1.70;;
84357;SDS011;74548;47.712;9.272;2023-12-20T10:18:20;2.60;;;2.10;;
84357;SDS011;74548;47.712;9.272;2023-12-20T10:20:46;2.60;;;1.88;;
84357;SDS011;74548;47.712;9.272;2023-12-20T10:23:12;3.40;;;1.73;;
84357;SDS011;74548;47.712;9.272;2023-12-20T10:25:38;3.58;;;1.95;;
84357;SDS011;74548;47.712;9.272;2023-12-20T10:33:07;4.47;;;1.85;;
84357;SDS011;74548;47.712;9.272;2023-12-20T10:38:00;3.22;;;2.03;;
84357;SDS011;74548;47.712;9.272;2023-12-20T10:40:29;5.43;;;2.28;;
84357;SDS011;74548;47.712;9.272;2023-12-20T10:42:54;4.30;;;2.13;;
84357;SDS011;74548;47.712;9.272;2023-12-20T10:45:21;2.47;;;1.73;;
84357;SDS011;74548;47.712;9.272;2023-12-20T10:50:03;3.63;;;2.25;;
84357;SDS011;74548;47.712;9.272;2023-12-20T10:52:30;3.83;;;1.95;;
84357;SDS011;74548;47.712;9.272;2023-12-20T10:54:59;2.72;;;1.88;;
84357;SDS011;74548;47.712;9.272;2023-12-20T10:57:24;3.55;;;2.20;;
84357;SDS011;74548;47.712;9.272;2023-12-20T10:59:52;3.38;;;2.35;;
84357;SDS011;74548;47.712;9.272;2023-12-20T11:02:19;3.60;;;2.20;;
84357;SDS011;74548;47.712;9.272;2023-12-20T11:07:43;1.90;;;1.52;;
84357;SDS011;74548;47.712;9.272;2023-12-20T11:10:16;4.28;;;2.00;;
84357;SDS011;74548;47.712;9.272;2023-12-20T11:15:28;3.47;;;1.90;;
84357;SDS011;74548;47.712;9.272;2023-12-20T11:17:54;3.60;;;1.65;;
84357;SDS011;74548;47.712;9.272;2023-12-20T11:20:22;3.72;;;2.08;;
84357;SDS011;74548;47.712;9.272;2023-12-20T11:22:54;3.78;;;2.28;;
84357;SDS011;74548;47.712;9.272;2023-12-20T11:25:20;3.63;;;2.08;;
84357;SDS011;74548;47.712;9.272;2023-12-20T11:27:47;3.65;;;1.95;;
84357;SDS011;74548;47.712;9.272;2023-12-20T11:30:48;3.13;;;1.80;;
84357;SDS011;74548;47.712;9.272;2023-12-20T11:35:43;2.08;;;1.60;;
84357;SDS011;74548;47.712;9.272;2023-12-20T11:38:10;3.83;;;1.50;;
84357;SDS011;74548;47.712;9.272;2023-12-20T11:40:36;4.70;;;2.20;;
84357;SDS011;74548;47.712;9.272;2023-12-20T11:43:02;2.35;;;1.48;;
84357;SDS011;74548;47.712;9.272;2023-12-20T11:45:29;2.95;;;1.70;;
84357;SDS011;74548;47.712;9.272;2023-12-20T11:47:55;3.42;;;1.85;;
84357;SDS011;74548;47.712;9.272;2023-12-20T11:50:22;2.53;;;1.63;;
84357;SDS011;74548;47.712;9.272;2023-12-20T11:52:48;2.40;;;1.38;;
84357;SDS011;74548;47.712;9.272;2023-12-20T11:55:14;2.63;;;1.60;;
84357;SDS011;74548;47.712;9.272;2023-12-20T11:57:40;2.78;;;1.77;;
84357;SDS011;74548;47.712;9.272;2023-12-20T12:00:05;2.45;;;1.55;;
84357;SDS011;74548;47.712;9.272;2023-12-20T12:02:31;2.33;;;1.40;;
84357;SDS011;74548;47.712;9.272;2023-12-20T12:04:57;3.03;;;1.42;;
84357;SDS011;74548;47.712;9.272;2023-12-20T12:07:24;1.92;;;1.60;;
84357;SDS011;74548;47.712;9.272;2023-12-20T12:09:49;1.77;;;1.30;;
84357;SDS011;74548;47.712;9.272;2023-12-20T12:12:14;3.08;;;1.58;;
84357;SDS011;74548;47.712;9.272;2023-12-20T12:14:40;2.50;;;1.35;;
84357;SDS011;74548;47.712;9.272;2023-12-20T12:17:12;2.63;;;1.33;;
84357;SDS011;74548;47.712;9.272;2023-12-20T12:19:41;3.42;;;1.55;;
84357;SDS011;74548;47.712;9.272;2023-12-20T12:24:37;1.80;;;1.02;;
84357;SDS011;74548;47.712;9.272;2023-12-20T12:27:05;2.92;;;1.42;;
84357;SDS011;74548;47.712;9.272;2023-12-20T12:29:32;2.13;;;1.23;;
84357;SDS011;74548;47.712;9.272;2023-12-20T12:31:58;2.13;;;1.33;;
84357;SDS011;74548;47.712;9.272;2023-12-20T12:34:24;2.30;;;1.42;;
84357;SDS011;74548;47.712;9.272;2023-12-20T12:36:52;1.63;;;0.90;;
84357;SDS011;74548;47.712;9.272;2023-12-20T12:39:17;1.92;;;1.42;;
84357;SDS011;74548;47.712;9.272;2023-12-20T12:41:43;1.70;;;1.10;;
84357;SDS011;74548;47.712;9.272;2023-12-20T12:44:09;1.30;;;0.80;;
84357;SDS011;74548;47.712;9.272;2023-12-20T12:46:34;1.33;;;0.90;;
84357;SDS011;74548;47.712;9.272;2023-12-20T12:49:00;2.00;;;1.10;;
84357;SDS011;74548;47.712;9.272;2023-12-20T12:51:25;1.98;;;1.35;;
84357;SDS011;74548;47.712;9.272;2023-12-20T12:53:51;1.85;;;1.10;;
84357;SDS011;74548;47.712;9.272;2023-12-20T12:56:16;4.13;;;1.30;;
84357;SDS011;74548;47.712;9.272;2023-12-20T12:58:42;1.65;;;1.00;;
84357;SDS011;74548;47.712;9.272;2023-12-20T13:01:07;2.00;;;1.00;;
84357;SDS011;74548;47.712;9.272;2023-12-20T13:03:33;1.43;;;0.97;;
84357;SDS011;74548;47.712;9.272;2023-12-20T13:06:00;1.65;;;0.75;;
84357;SDS011;74548;47.712;9.272;2023-12-20T13:08:26;1.30;;;0.80;;
84357;SDS011;74548;47.712;9.272;2023-12-20T13:10:52;1.33;;;1.00;;
84357;SDS011;74548;47.712;9.272;2023-12-20T13:13:17;2.20;;;1.03;;
84357;SDS011;74548;47.712;9.272;2023-12-20T13:15:42;1.95;;;0.88;;
84357;SDS011;74548;47.712;9.272;2023-12-20T13:18:15;1.80;;;0.90;;
84357;SDS011;74548;47.712;9.272;2023-12-20T13:20:40;1.65;;;1.15;;
84357;SDS011;74548;47.712;9.272;2023-12-20T13:23:06;1.37;;;0.87;;
84357;SDS011;74548;47.712;9.272;2023-12-20T13:25:31;0.90;;;0.67;;
84357;SDS011;74548;47.712;9.272;2023-12-20T13:27:58;1.08;;;0.65;;
84357;SDS011;74548;47.712;9.272;2023-12-20T13:30:24;1.20;;;0.70;;
84357;SDS011;74548;47.712;9.272;2023-12-20T13:32:49;2.47;;;0.70;;
84357;SDS011;74548;47.712;9.272;2023-12-20T13:35:15;1.23;;;0.80;;
84357;SDS011;74548;47.712;9.272;2023-12-20T13:37:40;3.22;;;1.13;;
84357;SDS011;74548;47.712;9.272;2023-12-20T13:42:28;1.50;;;0.90;;
84357;SDS011;74548;47.712;9.272;2023-12-20T13:44:53;1.70;;;1.13;;
84357;SDS011;74548;47.712;9.272;2023-12-20T13:47:19;1.35;;;0.80;;
84357;SDS011;74548;47.712;9.272;2023-12-20T13:49:44;1.73;;;1.10;;
84357;SDS011;74548;47.712;9.272;2023-12-20T13:52:10;2.15;;;0.88;;
84357;SDS011;74548;47.712;9.272;2023-12-20T13:54:36;2.42;;;0.95;;
84357;SDS011;74548;47.712;9.272;2023-12-20T13:57:02;1.40;;;1.08;;
84357;SDS011;74548;47.712;9.272;2023-12-20T13:59:28;1.85;;;0.88;;
84357;SDS011;74548;47.712;9.272;2023-12-20T14:01:53;1.55;;;0.80;;
84357;SDS011;74548;47.712;9.272;2023-12-20T14:04:19;1.35;;;0.90;;
84357;SDS011;74548;47.712;9.272;2023-12-20T14:06:45;1.83;;;0.80;;
84357;SDS011;74548;47.712;9.272;2023-12-20T14:09:10;1.10;;;0.60;;
84357;SDS011;74548;47.712;9.272;2023-12-20T14:11:37;1.30;;;0.60;;
84357;SDS011;74548;47.712;9.272;2023-12-20T14:16:32;1.70;;;0.70;;
84357;SDS011;74548;47.712;9.272;2023-12-20T14:18:58;1.95;;;1.50;;
84357;SDS011;74548;47.712;9.272;2023-12-20T14:21:23;1.50;;;0.80;;
84357;SDS011;74548;47.712;9.272;2023-12-20T14:23:49;1.47;;;1.00;;
84357;SDS011;74548;47.712;9.272;2023-12-20T14:26:14;1.65;;;1.13;;
84357;SDS011;74548;47.712;9.272;2023-12-20T14:28:41;1.73;;;0.82;;
84357;SDS011;74548;47.712;9.272;2023-12-20T14:31:07;1.95;;;1.20;;
84357;SDS011;74548;47.712;9.272;2023-12-20T14:36:03;1.50;;;0.90;;
84357;SDS011;74548;47.712;9.272;2023-12-20T14:38:30;1.67;;;0.95;;
84357;SDS011;74548;47.712;9.272;2023-12-20T14:40:56;1.50;;;0.95;;
84357;SDS011;74548;47.712;9.272;2023-12-20T14:43:21;2.03;;;0.90;;
84357;SDS011;74548;47.712;9.272;2023-12-20T14:45:47;1.70;;;0.82;;
84357;SDS011;74548;47.712;9.272;2023-12-20T14:50:35;2.35;;;1.23;;
84357;SDS011;74548;47.712;9.272;2023-12-20T14:53:01;1.45;;;0.80;;
84357;SDS011;74548;47.712;9.272;2023-12-20T14:55:27;1.63;;;0.93;;
84357;SDS011;74548;47.712;9.272;2023-12-20T14:57:53;1.42;;;0.85;;
84357;SDS011;74548;47.712;9.272;2023-12-20T15:00:19;1.80;;;0.90;;
84357;SDS011;74548;47.712;9.272;2023-12-20T15:02:45;2.20;;;1.10;;
84357;SDS011;74548;47.712;9.272;2023-12-20T15:05:10;1.60;;;0.80;;
84357;SDS011;74548;47.712;9.272;2023-12-20T15:07:36;3.10;;;1.45;;
84357;SDS011;74548;47.712;9.272;2023-12-20T15:10:02;2.47;;;0.95;;
84357;SDS011;74548;47.712;9.272;2023-12-20T15:14:58;1.83;;;1.30;;
84357;SDS011;74548;47.712;9.272;2023-12-20T15:17:23;1.73;;;1.10;;
84357;SDS011;74548;47.712;9.272;2023-12-20T15:19:51;1.63;;;0.90;;
84357;SDS011;74548;47.712;9.272;2023-12-20T15:22:16;1.83;;;1.17;;
84357;SDS011;74548;47.712;9.272;2023-12-20T15:24:41;1.73;;;1.00;;
84357;SDS011;74548;47.712;9.272;2023-12-20T15:29:39;2.25;;;1.30;;
84357;SDS011;74548;47.712;9.272;2023-12-20T15:32:04;3.07;;;1.30;;
84357;SDS011;74548;47.712;9.272;2023-12-20T15:34:30;1.83;;;1.02;;
84357;SDS011;74548;47.712;9.272;2023-12-20T15:36:56;1.95;;;1.20;;
84357;SDS011;74548;47.712;9.272;2023-12-20T15:39:22;1.40;;;1.08;;
84357;SDS011;74548;47.712;9.272;2023-12-20T15:41:47;2.80;;;1.15;;
84357;SDS011;74548;47.712;9.272;2023-12-20T15:44:12;2.35;;;1.00;;
84357;SDS011;74548;47.712;9.272;2023-12-20T15:46:38;2.47;;;1.10;;
84357;SDS011;74548;47.712;9.272;2023-12-20T15:49:04;2.35;;;1.02;;
84357;SDS011;74548;47.712;9.272;2023-12-20T15:51:29;3.17;;;1.00;;
84357;SDS011;74548;47.712;9.272;2023-12-20T15:53:55;4.72;;;2.20;;
84357;SDS011;74548;47.712;9.272;2023-12-20T15:56:20;3.92;;;1.15;;
84357;SDS011;74548;47.712;9.272;2023-12-20T15:58:45;1.98;;;1.02;;
84357;SDS011;74548;47.712;9.272;2023-12-20T16:01:13;2.03;;;1.60;;
84357;SDS011;74548;47.712;9.272;2023-12-20T16:03:38;3.17;;;1.53;;
84357;SDS011;74548;47.712;9.272;2023-12-20T16:06:03;3.30;;;1.88;;
84357;SDS011;74548;47.712;9.272;2023-12-20T16:08:29;3.70;;;1.90;;
84357;SDS011;74548;47.712;9.272;2023-12-20T16:10:54;3.23;;;1.83;;
84357;SDS011;74548;47.712;9.272;2023-12-20T16:13:20;2.57;;;1.40;;
84357;SDS011;74548;47.712;9.272;2023-12-20T16:18:09;3.15;;;1.60;;
84357;SDS011;74548;47.712;9.272;2023-12-20T16:20:39;4.18;;;1.80;;
84357;SDS011;74548;47.712;9.272;2023-12-20T16:23:05;3.53;;;2.00;;
84357;SDS011;74548;47.712;9.272;2023-12-20T16:25:31;3.42;;;1.50;;
84357;SDS011;74548;47.712;9.272;2023-12-20T16:27:56;1.95;;;1.30;;
84357;SDS011;74548;47.712;9.272;2023-12-20T16:30:21;4.43;;;1.70;;
84357;SDS011;74548;47.712;9.272;2023-12-20T16:32:47;3.67;;;1.80;;
84357;SDS011;74548;47.712;9.272;2023-12-20T16:35:13;3.30;;;1.98;;
84357;SDS011;74548;47.712;9.272;2023-12-20T16:37:38;3.85;;;2.15;;
84357;SDS011;74548;47.712;9.272;2023-12-20T16:40:04;3.47;;;1.67;;
84357;SDS011;74548;47.712;9.272;2023-12-20T16:42:31;3.05;;;1.92;;
84357;SDS011;74548;47.712;9.272;2023-12-20T16:44:56;6.90;;;1.90;;
84357;SDS011;74548;47.712;9.272;2023-12-20T16:47:21;3.00;;;1.73;;
84357;SDS011;74548;47.712;9.272;2023-12-20T16:49:47;2.50;;;1.57;;
84357;SDS011;74548;47.712;9.272;2023-12-20T16:52:12;2.73;;;1.57;;
84357;SDS011;74548;47.712;9.272;2023-12-20T16:54:38;3.72;;;1.92;;
84357;SDS011;74548;47.712;9.272;2023-12-20T16:57:03;5.13;;;1.80;;
84357;SDS011;74548;47.712;9.272;2023-12-20T16:59:29;4.07;;;1.70;;
84357;SDS011;74548;47.712;9.272;2023-12-20T17:01:54;2.83;;;1.52;;
84357;SDS011;74548;47.712;9.272;2023-12-20T17:06:47;3.85;;;1.60;;
84357;SDS011;74548;47.712;9.272;2023-12-20T17:09:12;4.18;;;1.60;;
84357;SDS011;74548;47.712;9.272;2023-12-20T17:11:38;3.87;;;1.70;;